createdAt,value
2022-12-18T00:01:27.206Z,-0.58
2022-12-18T00:04:12.108Z,-0.57
2022-12-18T00:06:56.701Z,-0.49
2022-12-18T00:09:41.527Z,-0.34
2022-12-18T00:12:26.199Z,-0.33
2022-12-18T00:15:11.075Z,-0.39
2022-12-18T00:17:55.830Z,-0.41
2022-12-18T00:20:40.560Z,-0.54
2022-12-18T00:23:25.843Z,-0.57
2022-12-18T00:26:10.532Z,-0.50
2022-12-18T00:28:55.319Z,-0.41
2022-12-18T00:31:39.967Z,-0.39
2022-12-18T00:34:24.653Z,-0.38
2022-12-18T00:37:09.297Z,-0.42
2022-12-18T00:39:54.017Z,-0.42
2022-12-18T00:42:38.616Z,-0.48
2022-12-18T00:45:23.376Z,-0.55
2022-12-18T00:48:08.032Z,-0.54
2022-12-18T00:50:53.658Z,-0.55
2022-12-18T00:53:38.697Z,-0.45
2022-12-18T00:56:23.681Z,-0.40
2022-12-18T00:59:08.646Z,-0.39
2022-12-18T01:01:53.390Z,-0.55
2022-12-18T01:04:38.616Z,-0.65
2022-12-18T01:07:23.306Z,-0.72
2022-12-18T01:10:08.105Z,-0.76
2022-12-18T01:12:53.003Z,-0.69
2022-12-18T01:15:37.622Z,-0.66
2022-12-18T01:18:22.357Z,-0.74
2022-12-18T01:21:07.170Z,-0.75
2022-12-18T01:23:51.967Z,-0.72
2022-12-18T01:26:36.648Z,-0.76
2022-12-18T01:29:21.359Z,-0.78
2022-12-18T01:32:06.100Z,-0.86
2022-12-18T01:34:50.834Z,-0.92
2022-12-18T01:37:35.640Z,-0.99
2022-12-18T01:40:20.413Z,-1.16
2022-12-18T01:43:05.168Z,-1.32
2022-12-18T01:45:49.904Z,-1.26
2022-12-18T01:48:34.659Z,-1.08
2022-12-18T01:51:19.445Z,-0.96
2022-12-18T01:54:04.366Z,-0.83
2022-12-18T01:56:49.062Z,-0.82
2022-12-18T01:59:33.806Z,-0.78
2022-12-18T02:02:18.695Z,-0.82
2022-12-18T02:05:03.868Z,-0.97
2022-12-18T02:07:48.720Z,-1.01
2022-12-18T02:10:33.434Z,-0.90
2022-12-18T02:13:18.805Z,-0.91
2022-12-18T02:16:03.459Z,-0.85
2022-12-18T02:18:48.250Z,-0.79
2022-12-18T02:21:32.957Z,-0.75
2022-12-18T02:24:17.753Z,-0.76
2022-12-18T02:27:02.483Z,-0.84
2022-12-18T02:29:47.011Z,-0.93
2022-12-18T02:32:31.794Z,-0.84
2022-12-18T02:35:16.546Z,-0.83
2022-12-18T02:38:01.190Z,-0.70
2022-12-18T02:40:46.087Z,-0.77
2022-12-18T02:43:30.688Z,-0.85
2022-12-18T02:46:15.414Z,-0.87
2022-12-18T02:49:00.134Z,-0.79
2022-12-18T02:51:44.803Z,-0.64
2022-12-18T02:54:29.519Z,-0.56
2022-12-18T02:57:14.242Z,-0.55
2022-12-18T02:59:59.033Z,-0.63
2022-12-18T03:02:43.688Z,-0.71
2022-12-18T03:05:28.873Z,-0.67
2022-12-18T03:08:13.553Z,-0.60
2022-12-18T03:10:58.791Z,-0.52
2022-12-18T03:13:43.650Z,-0.57
2022-12-18T03:16:28.441Z,-0.54
2022-12-18T03:19:13.387Z,-0.59
2022-12-18T03:21:57.992Z,-0.63
2022-12-18T03:24:42.899Z,-0.57
2022-12-18T03:27:27.738Z,-0.52
2022-12-18T03:30:12.492Z,-0.56
2022-12-18T03:33:00.272Z,-0.67
2022-12-18T03:35:45.507Z,-0.80
2022-12-18T03:38:30.416Z,-0.77
2022-12-18T03:41:15.227Z,-0.74
2022-12-18T03:43:59.963Z,-0.75
2022-12-18T03:46:44.670Z,-0.87
2022-12-18T03:49:29.489Z,-0.91
2022-12-18T03:52:14.199Z,-0.91
2022-12-18T03:54:59.070Z,-0.79
2022-12-18T03:57:43.865Z,-0.86
2022-12-18T04:00:28.530Z,-0.85
2022-12-18T04:03:13.410Z,-0.82
2022-12-18T04:05:58.075Z,-0.68
2022-12-18T04:08:42.967Z,-0.55
2022-12-18T04:11:27.597Z,-0.50
2022-12-18T04:14:17.676Z,-0.39
2022-12-18T04:17:03.243Z,-0.35
2022-12-18T04:19:47.895Z,-0.37
2022-12-18T04:22:32.922Z,-0.37
2022-12-18T04:25:17.904Z,-0.57
2022-12-18T04:28:02.890Z,-0.70
2022-12-18T04:30:47.570Z,-0.78
2022-12-18T04:33:32.703Z,-0.72
2022-12-18T04:36:17.426Z,-0.85
2022-12-18T04:39:02.078Z,-0.94
2022-12-18T04:41:46.831Z,-1.06
2022-12-18T04:44:31.553Z,-1.17
2022-12-18T04:47:16.579Z,-1.16
2022-12-18T04:50:01.125Z,-1.07
2022-12-18T04:52:45.818Z,-1.13
2022-12-18T04:55:30.443Z,-1.17
2022-12-18T04:58:15.158Z,-1.23
2022-12-18T05:00:59.915Z,-1.19
2022-12-18T05:03:45.395Z,-1.19
2022-12-18T05:06:30.500Z,-1.16
2022-12-18T05:09:15.250Z,-1.14
2022-12-18T05:12:00.014Z,-1.11
2022-12-18T05:14:44.629Z,-0.98
2022-12-18T05:17:29.300Z,-0.97
2022-12-18T05:20:13.998Z,-1.04
2022-12-18T05:22:58.752Z,-0.87
2022-12-18T05:25:43.547Z,-0.78
2022-12-18T05:28:28.184Z,-0.72
2022-12-18T05:31:13.076Z,-0.75
2022-12-18T05:33:57.819Z,-0.84
2022-12-18T05:36:42.606Z,-1.07
2022-12-18T05:39:27.742Z,-1.20
2022-12-18T05:42:12.761Z,-1.12
2022-12-18T05:44:57.547Z,-1.02
2022-12-18T05:47:42.321Z,-0.93
2022-12-18T05:50:26.962Z,-0.93
2022-12-18T05:53:11.779Z,-0.90
2022-12-18T05:55:56.520Z,-0.98
2022-12-18T05:58:41.354Z,-0.91
2022-12-18T06:01:26.166Z,-0.84
2022-12-18T06:04:10.864Z,-0.83
2022-12-18T06:06:55.595Z,-0.81
2022-12-18T06:09:40.324Z,-0.83
2022-12-18T06:12:25.174Z,-0.82
2022-12-18T06:15:09.942Z,-0.90
2022-12-18T06:17:54.695Z,-0.86
2022-12-18T06:20:39.395Z,-0.85
2022-12-18T06:23:24.117Z,-0.70
2022-12-18T06:26:08.861Z,-0.62
2022-12-18T06:28:53.655Z,-0.52
2022-12-18T06:31:38.405Z,-0.47
2022-12-18T06:34:22.996Z,-0.43
2022-12-18T06:37:07.858Z,-0.58
2022-12-18T06:39:52.682Z,-0.40
2022-12-18T06:42:37.495Z,-0.32
2022-12-18T06:45:22.166Z,-0.26
2022-12-18T06:48:07.053Z,-0.27
2022-12-18T06:50:51.781Z,-0.21
2022-12-18T06:53:36.708Z,-0.32
2022-12-18T06:56:21.841Z,-0.32
2022-12-18T06:59:06.654Z,-0.28
2022-12-18T07:01:51.576Z,-0.18
2022-12-18T07:04:36.196Z,-0.32
2022-12-18T07:07:20.933Z,-0.45
2022-12-18T07:10:05.600Z,-0.55
2022-12-18T07:12:50.332Z,-0.52
2022-12-18T07:15:35.007Z,-0.49
2022-12-18T07:18:19.770Z,-0.49
2022-12-18T07:21:04.421Z,-0.47
2022-12-18T07:23:49.556Z,-0.49
2022-12-18T07:26:34.454Z,-0.40
2022-12-18T07:29:19.242Z,-0.22
2022-12-18T07:32:04.005Z,-0.09
2022-12-18T07:34:48.594Z,-0.02
2022-12-18T07:37:33.444Z,0.03
2022-12-18T07:40:18.249Z,0.07
2022-12-18T07:43:02.978Z,0.07
2022-12-18T07:45:47.786Z,-0.07
2022-12-18T07:48:33.026Z,-0.04
2022-12-18T07:51:17.630Z,-0.25
2022-12-18T07:54:03.320Z,-0.41
2022-12-18T07:56:48.292Z,-0.50
2022-12-18T07:59:32.965Z,-0.42
2022-12-18T08:02:17.975Z,-0.34
2022-12-18T08:05:03.206Z,-0.28
2022-12-18T08:07:48.026Z,-0.36
2022-12-18T08:10:32.639Z,-0.30
2022-12-18T08:13:17.567Z,0.08
2022-12-18T08:16:02.194Z,0.21
2022-12-18T08:18:46.989Z,0.33
2022-12-18T08:21:31.689Z,0.44
2022-12-18T08:24:16.418Z,0.60
2022-12-18T08:27:31.175Z,0.77
2022-12-18T08:30:06.096Z,0.93
2022-12-18T08:32:52.330Z,1.06
2022-12-18T08:35:41.108Z,1.21
2022-12-18T08:38:29.034Z,1.41
2022-12-18T08:41:13.827Z,1.54
2022-12-18T08:43:58.560Z,1.70
2022-12-18T08:46:43.232Z,1.81
2022-12-18T08:49:28.055Z,1.96
2022-12-18T08:52:12.820Z,2.00
2022-12-18T08:54:57.790Z,2.08
2022-12-18T08:57:42.406Z,2.25
2022-12-18T09:00:27.224Z,2.40
2022-12-18T09:03:12.105Z,2.53
2022-12-18T09:05:58.098Z,2.71
2022-12-18T09:08:43.195Z,2.94
2022-12-18T09:11:28.212Z,3.08
2022-12-18T09:14:13.445Z,3.16
2022-12-18T09:16:58.266Z,3.24
2022-12-18T09:19:43.401Z,3.35
2022-12-18T09:22:28.182Z,3.45
2022-12-18T09:25:13.076Z,3.48
2022-12-18T09:27:57.739Z,3.38
2022-12-18T09:30:42.484Z,3.45
2022-12-18T09:33:27.294Z,3.49
2022-12-18T09:36:12.962Z,3.70
2022-12-18T09:38:57.881Z,3.76
2022-12-18T09:41:42.645Z,3.79
2022-12-18T09:44:27.665Z,3.78
2022-12-18T09:47:12.998Z,3.87
2022-12-18T09:49:57.759Z,4.01
2022-12-18T09:52:42.697Z,4.26
2022-12-18T09:55:30.927Z,4.44
2022-12-18T09:58:18.766Z,4.50
2022-12-18T10:01:03.701Z,4.53
2022-12-18T10:03:48.451Z,4.62
2022-12-18T10:06:33.251Z,4.68
2022-12-18T10:09:18.115Z,4.76
2022-12-18T10:12:02.925Z,4.83
2022-12-18T10:14:47.664Z,4.92
2022-12-18T10:17:32.423Z,5.00
2022-12-18T10:20:17.247Z,5.09
2022-12-18T10:23:01.957Z,5.13
2022-12-18T10:25:46.761Z,5.06
2022-12-18T10:28:31.453Z,4.96
2022-12-18T10:31:16.278Z,4.89
2022-12-18T10:34:00.920Z,4.95
2022-12-18T10:36:45.632Z,4.95
2022-12-18T10:39:30.317Z,5.05
2022-12-18T10:42:15.064Z,5.18
2022-12-18T10:44:59.729Z,5.20
2022-12-18T10:47:44.570Z,5.30
2022-12-18T10:50:47.153Z,5.36
2022-12-18T10:53:34.066Z,5.49
2022-12-18T10:56:18.795Z,5.47
2022-12-18T10:59:03.552Z,5.48
2022-12-18T11:01:48.966Z,5.43
2022-12-18T11:04:33.765Z,5.51
2022-12-18T11:07:18.411Z,5.51
2022-12-18T11:10:03.291Z,5.54
2022-12-18T11:12:48.087Z,5.54
2022-12-18T11:15:32.966Z,5.57
2022-12-18T11:18:18.628Z,5.61
2022-12-18T11:21:03.499Z,5.69
2022-12-18T11:23:48.263Z,5.77
2022-12-18T11:26:33.031Z,5.87
2022-12-18T11:29:17.740Z,5.90
2022-12-18T11:32:02.985Z,5.95
2022-12-18T11:34:47.919Z,5.93
2022-12-18T11:37:33.026Z,5.86
2022-12-18T11:40:17.678Z,5.93
2022-12-18T11:43:02.392Z,5.93
2022-12-18T11:45:47.177Z,5.94
2022-12-18T11:48:31.880Z,6.00
2022-12-18T11:51:16.703Z,6.08
2022-12-18T11:54:01.455Z,6.20
2022-12-18T11:56:46.214Z,6.18
2022-12-18T11:59:31.108Z,6.09
2022-12-18T12:02:15.839Z,6.03
2022-12-18T12:05:01.089Z,5.98
2022-12-18T12:07:45.911Z,5.99
2022-12-18T12:10:30.714Z,6.01
2022-12-18T12:13:15.335Z,6.01
2022-12-18T12:16:00.209Z,6.04
2022-12-18T12:18:45.235Z,6.09
2022-12-18T12:21:30.019Z,6.13
2022-12-18T12:24:15.205Z,6.18
2022-12-18T12:26:59.957Z,6.28
2022-12-18T12:29:44.651Z,6.42
2022-12-18T12:32:29.332Z,6.46
2022-12-18T12:35:14.146Z,6.49
2022-12-18T12:37:58.828Z,6.43
2022-12-18T12:40:55.249Z,6.46
2022-12-18T12:43:50.316Z,6.50
2022-12-18T12:46:35.674Z,6.61
2022-12-18T12:49:20.494Z,6.68
2022-12-18T12:52:07.915Z,6.73
2022-12-18T12:54:53.238Z,6.81
2022-12-18T12:57:38.053Z,6.89
2022-12-18T13:00:22.830Z,6.91
2022-12-18T13:03:08.063Z,6.85
2022-12-18T13:05:53.279Z,6.86
2022-12-18T13:08:39.064Z,6.83
2022-12-18T13:11:23.771Z,6.72
2022-12-18T13:14:08.598Z,6.69
2022-12-18T13:16:53.365Z,6.57
2022-12-18T13:19:37.891Z,6.46
2022-12-18T13:22:22.687Z,6.42
2022-12-18T13:25:07.467Z,6.34
2022-12-18T13:27:52.360Z,6.31
2022-12-18T13:30:37.615Z,6.38
2022-12-18T13:33:22.415Z,6.42
2022-12-18T13:36:07.660Z,6.51
2022-12-18T13:38:52.468Z,6.69
2022-12-18T13:41:37.743Z,6.85
2022-12-18T13:44:22.481Z,6.94
2022-12-18T13:47:07.240Z,7.04
2022-12-18T13:49:52.395Z,7.07
2022-12-18T13:52:37.305Z,7.00
2022-12-18T13:55:22.595Z,6.89
2022-12-18T13:58:07.489Z,6.78
2022-12-18T14:00:52.432Z,6.69
2022-12-18T14:03:37.520Z,6.62
2022-12-18T14:06:22.377Z,6.55
2022-12-18T14:09:09.576Z,6.32
2022-12-18T14:11:54.383Z,6.32
2022-12-18T14:14:39.102Z,6.36
2022-12-18T14:17:23.784Z,6.18
2022-12-18T14:20:09.648Z,6.15
2022-12-18T14:22:54.309Z,6.13
2022-12-18T14:25:39.111Z,6.03
2022-12-18T14:28:23.744Z,5.90
2022-12-18T14:31:08.725Z,5.94
2022-12-18T14:33:53.376Z,5.85
2022-12-18T14:36:38.125Z,5.72
2022-12-18T14:39:22.889Z,5.73
2022-12-18T14:42:08.119Z,5.64
2022-12-18T14:45:13.340Z,5.61
2022-12-18T14:47:57.757Z,5.60
2022-12-18T14:50:42.577Z,5.55
2022-12-18T14:53:27.288Z,5.44
2022-12-18T14:56:12.159Z,5.35
2022-12-18T14:58:57.006Z,5.38
2022-12-18T15:01:41.815Z,5.45
2022-12-18T15:04:27.140Z,5.48
2022-12-18T15:07:11.707Z,5.50
2022-12-18T15:09:56.471Z,5.46
2022-12-18T15:12:41.150Z,5.40
2022-12-18T15:15:25.855Z,5.35
2022-12-18T15:18:10.430Z,5.24
2022-12-18T15:20:55.238Z,5.11
2022-12-18T15:23:40.330Z,5.14
2022-12-18T15:26:25.186Z,5.05
2022-12-18T15:29:15.512Z,5.07
2022-12-18T15:32:00.924Z,5.03
2022-12-18T15:34:45.712Z,5.02
2022-12-18T15:37:30.522Z,4.98
2022-12-18T15:40:15.241Z,4.91
2022-12-18T15:43:02.567Z,4.88
2022-12-18T15:45:47.307Z,4.89
2022-12-18T15:48:32.198Z,4.98
2022-12-18T15:51:16.958Z,4.98
2022-12-18T15:54:01.617Z,4.89
2022-12-18T15:56:46.284Z,4.91
2022-12-18T15:59:30.824Z,4.81
2022-12-18T16:02:15.955Z,4.75
2022-12-18T16:05:00.745Z,4.70
2022-12-18T16:07:45.505Z,4.65
2022-12-18T16:10:30.228Z,4.64
2022-12-18T16:13:15.011Z,4.68
2022-12-18T16:15:59.726Z,4.73
2022-12-18T16:18:45.025Z,4.68
2022-12-18T16:21:33.944Z,4.66
2022-12-18T16:24:19.175Z,4.68
2022-12-18T16:27:03.940Z,4.65
2022-12-18T16:29:48.683Z,4.66
2022-12-18T16:32:33.469Z,4.66
2022-12-18T16:35:18.272Z,4.62
2022-12-18T16:38:03.041Z,4.55
2022-12-18T16:40:47.767Z,4.50
2022-12-18T16:43:32.484Z,4.56
2022-12-18T16:46:17.400Z,4.50
2022-12-18T16:49:02.027Z,4.37
2022-12-18T16:51:46.757Z,4.36
2022-12-18T16:54:31.487Z,4.37
2022-12-18T16:57:16.837Z,4.37
2022-12-18T17:00:05.695Z,4.31
2022-12-18T17:02:51.184Z,4.28
2022-12-18T17:05:36.359Z,4.37
2022-12-18T17:08:21.131Z,4.41
2022-12-18T17:11:05.871Z,4.40
2022-12-18T17:13:50.729Z,4.37
2022-12-18T17:16:35.786Z,4.38
2022-12-18T17:19:21.828Z,4.41
2022-12-18T17:22:06.839Z,4.32
2022-12-18T17:24:51.345Z,4.26
2022-12-18T17:27:36.058Z,4.24
2022-12-18T17:30:20.666Z,4.30
2022-12-18T17:33:05.561Z,4.33
2022-12-18T17:35:50.273Z,4.81
2022-12-18T17:38:35.088Z,5.21
2022-12-18T17:41:19.714Z,5.23
2022-12-18T17:44:04.530Z,5.07
2022-12-18T17:46:49.320Z,4.92
2022-12-18T17:49:34.162Z,4.96
2022-12-18T17:52:18.868Z,4.90
2022-12-18T17:55:03.660Z,4.87
2022-12-18T17:57:48.296Z,4.72
2022-12-18T18:00:33.049Z,4.61
2022-12-18T18:03:17.947Z,4.55
2022-12-18T18:06:03.118Z,4.48
2022-12-18T18:08:48.149Z,4.47
2022-12-18T18:11:33.485Z,4.49
2022-12-18T18:14:18.326Z,4.48
2022-12-18T18:17:04.545Z,4.53
2022-12-18T18:19:50.054Z,4.46
2022-12-18T18:22:34.793Z,4.54
2022-12-18T18:25:19.430Z,4.62
2022-12-18T18:28:04.841Z,4.67
2022-12-18T18:30:49.624Z,4.68
2022-12-18T18:33:35.051Z,4.61
2022-12-18T18:36:19.687Z,4.45
2022-12-18T18:39:04.666Z,4.42
2022-12-18T18:41:49.661Z,4.40
2022-12-18T18:44:34.421Z,4.48
2022-12-18T18:47:19.299Z,4.47
2022-12-18T18:50:04.078Z,4.53
2022-12-18T18:52:49.025Z,4.62
2022-12-18T18:55:33.765Z,4.73
2022-12-18T18:58:18.955Z,4.77
2022-12-18T19:01:03.749Z,4.72
2022-12-18T19:03:48.958Z,4.61
2022-12-18T19:06:33.828Z,4.54
2022-12-18T19:09:19.525Z,4.55
2022-12-18T19:12:04.956Z,4.57
2022-12-18T19:14:50.346Z,4.54
2022-12-18T19:17:35.290Z,4.63
2022-12-18T19:20:19.929Z,4.59
2022-12-18T19:23:04.759Z,4.59
2022-12-18T19:25:52.982Z,4.49
2022-12-18T19:28:54.395Z,4.46
2022-12-18T19:31:39.103Z,4.47
2022-12-18T19:34:24.326Z,4.51
2022-12-18T19:37:08.991Z,4.53
2022-12-18T19:39:53.822Z,4.58
2022-12-18T19:42:38.586Z,4.60
2022-12-18T19:45:23.465Z,4.62
2022-12-18T19:48:08.631Z,4.62
2022-12-18T19:50:53.290Z,4.73
2022-12-18T19:53:38.065Z,4.79
2022-12-18T19:56:22.893Z,4.81
2022-12-18T19:59:07.596Z,4.83
2022-12-18T20:01:52.593Z,4.92
2022-12-18T20:04:37.695Z,4.94
2022-12-18T20:07:22.479Z,5.03
2022-12-18T20:10:09.252Z,5.06
2022-12-18T20:12:54.366Z,5.11
2022-12-18T20:15:44.996Z,5.17
2022-12-18T20:18:30.174Z,5.20
2022-12-18T20:21:15.296Z,5.19
2022-12-18T20:24:00.151Z,5.17
2022-12-18T20:26:45.242Z,5.12
2022-12-18T20:29:30.086Z,5.16
2022-12-18T20:32:14.988Z,5.26
2022-12-18T20:35:00.222Z,5.24
2022-12-18T20:37:50.739Z,5.30
2022-12-18T20:40:36.870Z,5.38
2022-12-18T20:43:21.663Z,5.52
2022-12-18T20:46:06.551Z,5.57
2022-12-18T20:48:51.154Z,5.64
2022-12-18T20:51:35.924Z,5.63
2022-12-18T20:54:20.709Z,5.53
2022-12-18T20:57:05.673Z,5.41
2022-12-18T20:59:50.410Z,5.45
2022-12-18T21:02:35.269Z,5.55
2022-12-18T21:05:20.444Z,5.64
2022-12-18T21:08:05.206Z,5.65
2022-12-18T21:10:50.068Z,5.65
2022-12-18T21:13:35.752Z,5.56
2022-12-18T21:16:20.720Z,5.54
2022-12-18T21:19:05.880Z,5.69
2022-12-18T21:21:51.302Z,5.69
2022-12-18T21:24:36.595Z,5.72
2022-12-18T21:27:21.427Z,5.76
2022-12-18T21:30:06.274Z,5.77
2022-12-18T21:32:50.967Z,5.75
2022-12-18T21:35:35.800Z,5.80
2022-12-18T21:38:20.539Z,5.85
2022-12-18T21:41:05.274Z,5.91
2022-12-18T21:43:50.045Z,5.93
2022-12-18T21:46:34.794Z,5.96
2022-12-18T21:49:20.018Z,5.97
2022-12-18T21:52:04.696Z,6.00
2022-12-18T21:54:49.651Z,6.03
2022-12-18T21:57:34.407Z,6.13
2022-12-18T22:00:19.811Z,6.17
2022-12-18T22:03:17.897Z,6.21
2022-12-18T22:06:09.456Z,6.27
2022-12-18T22:08:54.382Z,6.38
2022-12-18T22:11:39.534Z,6.43
2022-12-18T22:14:24.503Z,6.43
2022-12-18T22:17:09.127Z,6.37
2022-12-18T22:19:54.936Z,6.38
2022-12-18T22:22:39.764Z,6.43
2022-12-18T22:25:24.499Z,6.39
2022-12-18T22:28:09.234Z,6.42
2022-12-18T22:30:58.971Z,6.48
2022-12-18T22:33:44.209Z,6.51
2022-12-18T22:36:31.136Z,6.44
2022-12-18T22:39:15.944Z,6.35
2022-12-18T22:42:01.726Z,6.27
2022-12-18T22:44:46.455Z,6.26
2022-12-18T22:47:31.367Z,6.22
2022-12-18T22:50:16.100Z,6.17
2022-12-18T22:53:00.703Z,6.24
2022-12-18T22:55:45.499Z,6.33
2022-12-18T22:58:30.187Z,6.37
2022-12-18T23:01:15.075Z,6.41
2022-12-18T23:03:59.771Z,6.43
2022-12-18T23:06:44.729Z,6.47
2022-12-18T23:09:29.506Z,6.42
2022-12-18T23:12:14.234Z,6.33
2022-12-18T23:14:59.427Z,6.26
2022-12-18T23:17:44.095Z,6.38
2022-12-18T23:20:28.779Z,6.35
2022-12-18T23:23:13.500Z,6.41
2022-12-18T23:25:59.909Z,6.38
2022-12-18T23:28:44.755Z,6.42
2022-12-18T23:31:29.720Z,6.41
2022-12-18T23:34:14.267Z,6.36
2022-12-18T23:36:59.084Z,6.39
2022-12-18T23:39:43.924Z,6.37
2022-12-18T23:42:28.724Z,6.38
2022-12-18T23:45:18.107Z,6.49
2022-12-18T23:48:03.189Z,6.59
2022-12-18T23:50:47.904Z,6.67
2022-12-18T23:53:32.529Z,6.71
2022-12-18T23:56:17.447Z,6.76
2022-12-18T23:59:02.249Z,6.75
